Time;durP1;ratioP1;P1;durP2;ratioP2;P2;SDS_P1;SDS_P2;PMS_P1;PMS_P2;Temp;Humidity;BMP_temperature;BMP_pressure;BME280_temperature;BME280_humidity;BME280_pressure;Samples;Min_cycle;Max_cycle;Signal;HPM_P1;HPM_P2
2023/04/29 00:01:57;;;;;;;36.13;22.08;;;;;;;8.66;nan;101474.63;4993396;28;20046;-41
2023/04/29 00:04:24;;;;;;;30.33;22.20;;;;;;;8.74;nan;101491.13;4993881;28;20490;-43
2023/04/29 00:06:49;;;;;;;29.88;21.60;;;;;;;8.36;nan;101433.06;4992989;28;20097;-40
2023/04/29 00:09:14;;;;;;;29.30;21.55;;;;;;;8.23;nan;101424.44;4992611;28;20478;-44
2023/04/29 00:11:40;;;;;;;35.40;23.83;;;;;;;8.68;nan;101493.84;4993542;28;20426;-40
2023/04/29 00:14:05;;;;;;;34.72;25.40;;;;;;;8.37;nan;101434.81;4993830;28;20046;-42
2023/04/29 00:16:30;;;;;;;31.48;25.98;;;;;;;8.68;nan;101495.59;4992696;28;20084;-40
2023/04/29 00:18:56;;;;;;;30.55;25.75;;;;;;;8.30;nan;101427.91;4993424;28;20125;-45
2023/04/29 00:21:21;;;;;;;34.00;26.30;;;;;;;8.25;nan;101424.44;4993413;28;20034;-43
2023/04/29 00:23:47;;;;;;;38.58;26.70;;;;;;;8.59;nan;101482.59;4993562;28;20042;-42
2023/04/29 00:26:12;;;;;;;30.92;25.10;;;;;;;8.61;nan;101486.09;4993651;28;20509;-42
2023/04/29 00:28:38;;;;;;;33.15;25.35;;;;;;;8.64;nan;101494.75;4993527;28;20534;-43
2023/04/29 00:31:03;;;;;;;36.05;26.10;;;;;;;8.55;nan;101509.78;4993658;28;20034;-44
2023/04/29 00:33:28;;;;;;;40.40;27.30;;;;;;;8.18;nan;101443.75;4992890;28;20068;-42
2023/04/29 00:35:54;;;;;;;40.03;26.98;;;;;;;8.56;nan;101515.00;4993402;28;20113;-40
2023/04/29 00:38:20;;;;;;;33.45;26.58;;;;;;;7.94;nan;101439.69;4992765;28;20116;-41
2023/04/29 00:40:45;;;;;;;31.88;25.52;;;;;;;8.48;nan;101515.09;4993339;28;20497;-41
2023/04/29 00:43:10;;;;;;;30.70;25.60;;;;;;;8.12;nan;101446.47;4993373;28;20466;-43
2023/04/29 00:45:35;;;;;;;36.22;26.17;;;;;;;8.54;nan;101522.03;5008808;28;20053;-42
2023/04/29 00:48:01;;;;;;;34.55;25.60;;;;;;;8.48;nan;101522.97;4992516;28;20034;-43
2023/04/29 00:50:26;;;;;;;38.08;26.90;;;;;;;8.45;nan;101509.91;4993272;28;20482;-40
2023/04/29 00:52:52;;;;;;;38.40;27.98;;;;;;;8.11;nan;101450.88;4993035;28;20030;-42
2023/04/29 00:55:18;;;;;;;37.35;25.48;;;;;;;8.42;nan;101511.69;4993532;28;20034;-40
2023/04/29 00:57:47;;;;;;;33.47;27.20;;;;;;;8.45;nan;101525.63;4991858;28;20038;-40
2023/04/29 01:00:15;;;;;;;32.03;25.50;;;;;;;8.44;nan;101518.66;4993100;28;20034;-39
2023/04/29 01:02:40;;;;;;;37.70;27.63;;;;;;;8.46;nan;101522.09;4991734;28;20028;-39
2023/04/29 01:05:06;;;;;;;35.03;27.60;;;;;;;8.24;nan;101488.28;4992253;28;20117;-42
2023/04/29 01:08:09;;;;;;;34.35;27.63;;;;;;;8.45;nan;101533.50;4992603;28;20528;-41
2023/04/29 01:10:56;;;;;;;34.08;26.98;;;;;;;8.47;nan;101536.09;4993300;28;20037;-42
2023/04/29 01:13:40;;;;;;;36.50;28.17;;;;;;;8.06;nan;101465.75;4992811;28;20027;-41
2023/04/29 01:16:12;;;;;;;36.17;26.67;;;;;;;8.31;nan;101509.22;4993109;28;20030;-43
2023/04/29 01:18:42;;;;;;;41.97;27.70;;;;;;;8.04;nan;101464.06;4996244;28;20038;-42
2023/04/29 01:21:08;;;;;;;35.55;27.33;;;;;;;8.46;nan;101543.09;5011190;28;20066;-43
2023/04/29 01:23:33;;;;;;;37.53;27.92;;;;;;;8.47;nan;101541.34;4995644;28;20525;-41
2023/04/29 01:25:58;;;;;;;33.97;26.90;;;;;;;8.30;nan;101503.97;4996771;28;20074;-42
2023/04/29 01:28:47;;;;;;;33.75;27.10;;;;;;;8.46;nan;101531.75;4995828;28;20034;-41
2023/04/29 01:31:31;;;;;;;39.80;28.23;;;;;;;8.44;nan;101539.63;4996993;28;20109;-44
2023/04/29 01:34:10;;;;;;;42.47;27.83;;;;;;;8.44;nan;101538.75;4995478;28;20481;-44
2023/04/29 01:36:44;;;;;;;37.25;27.60;;;;;;;8.11;nan;101473.59;4995027;28;20490;-40
2023/04/29 01:39:25;;;;;;;34.78;26.58;;;;;;;8.46;nan;101529.97;4995782;28;20072;-44
2023/04/29 01:41:57;;;;;;;35.63;25.67;;;;;;;8.23;nan;101491.81;5011317;28;20057;-44
2023/04/29 01:44:26;;;;;;;35.70;26.20;;;;;;;8.06;nan;101463.13;4995787;28;20500;-40
2023/04/29 01:46:55;;;;;;;31.60;26.17;;;;;;;8.53;nan;101543.03;5011557;28;20027;-43
2023/04/29 01:49:24;;;;;;;37.58;26.67;;;;;;;8.53;nan;101541.28;4996675;28;20109;-43
2023/04/29 01:51:49;;;;;;;33.10;25.60;;;;;;;8.55;nan;101542.13;4996140;28;20497;-40
2023/04/29 01:54:15;;;;;;;39.83;27.13;;;;;;;8.17;nan;101481.38;4995310;28;20042;-41
2023/04/29 01:56:40;;;;;;;36.95;27.13;;;;;;;8.25;nan;101490.00;4995395;28;20508;-40
2023/04/29 01:59:06;;;;;;;33.28;27.50;;;;;;;8.59;nan;101543.81;4996224;28;20125;-42
2023/04/29 02:01:32;;;;;;;35.03;26.80;;;;;;;8.16;nan;101467.41;4996183;28;20651;-41
2023/04/29 02:03:58;;;;;;;35.13;26.75;;;;;;;8.58;nan;101547.31;4996389;28;20034;-42
2023/04/29 02:06:23;;;;;;;36.85;26.98;;;;;;;8.60;nan;101549.94;4995785;28;20127;-41
2023/04/29 02:08:49;;;;;;;32.67;25.52;;;;;;;8.58;nan;101552.56;4995854;28;20038;-41
2023/04/29 02:11:14;;;;;;;31.40;24.23;;;;;;;8.59;nan;101550.81;4996245;28;20058;-41
2023/04/29 02:13:39;;;;;;;29.83;23.65;;;;;;;8.23;nan;101491.81;4995171;28;20069;-43
2023/04/29 02:16:09;;;;;;;31.38;21.20;;;;;;;8.61;nan;101562.19;4995822;28;20057;-41
2023/04/29 02:18:34;;;;;;;27.52;19.50;;;;;;;8.48;nan;101551.84;4995960;28;20125;-42
2023/04/29 02:21:00;;;;;;;24.90;19.05;;;;;;;8.53;nan;101550.88;4996045;28;20125;-42
2023/04/29 02:23:26;;;;;;;25.98;18.83;;;;;;;8.64;nan;101575.25;4995799;28;20105;-40
2023/04/29 02:25:51;;;;;;;23.13;18.98;;;;;;;8.67;nan;101581.31;4994702;28;20113;-41
2023/04/29 02:28:17;;;;;;;24.40;19.52;;;;;;;8.67;nan;101575.22;4995033;28;20049;-41
2023/04/29 02:30:42;;;;;;;22.38;18.80;;;;;;;8.67;nan;101573.44;4994595;28;20061;-41
2023/04/29 02:33:07;;;;;;;23.52;19.35;;;;;;;8.42;nan;101532.66;4995625;28;20081;-41
2023/04/29 02:35:33;;;;;;;24.75;19.90;;;;;;;8.42;nan;101536.16;4995653;28;20042;-41
2023/04/29 02:37:58;;;;;;;20.67;18.33;;;;;;;8.72;nan;101583.91;4995552;28;20030;-43
2023/04/29 02:40:25;;;;;;;28.55;19.20;;;;;;;8.71;nan;101585.66;4995669;28;20038;-41
2023/04/29 02:42:50;;;;;;;20.40;17.73;;;;;;;8.70;nan;101594.41;4995272;28;20051;-42
2023/04/29 02:45:16;;;;;;;24.65;18.23;;;;;;;8.71;nan;101601.41;4995409;28;20060;-41
2023/04/29 02:47:41;;;;;;;22.60;18.33;;;;;;;8.69;nan;101591.81;4994510;28;20047;-43
2023/04/29 02:50:07;;;;;;;22.67;17.27;;;;;;;8.73;nan;101612.75;4995517;28;20030;-43
2023/04/29 02:52:32;;;;;;;19.50;16.00;;;;;;;8.73;nan;101607.50;4995417;28;20426;-41
2023/04/29 02:54:57;;;;;;;23.05;17.20;;;;;;;8.77;nan;101614.44;4995217;28;20084;-42
2023/04/29 02:57:23;;;;;;;18.92;16.60;;;;;;;8.78;nan;101610.06;4993816;28;20034;-41
2023/04/29 02:59:48;;;;;;;22.20;16.75;;;;;;;8.80;nan;101610.91;4994788;28;20497;-44
2023/04/29 03:02:13;;;;;;;22.08;17.27;;;;;;;8.83;nan;101614.38;4994905;28;20035;-44
2023/04/29 03:04:39;;;;;;;23.45;17.45;;;;;;;8.30;nan;101545.94;4994129;28;20046;-43
2023/04/29 03:07:04;;;;;;;21.83;16.27;;;;;;;8.81;nan;101618.78;4993754;28;20034;-42
2023/04/29 03:09:30;;;;;;;25.77;17.85;;;;;;;8.84;nan;101623.13;4994420;28;20113;-41
2023/04/29 03:11:56;;;;;;;21.30;17.50;;;;;;;8.83;nan;101626.63;4995094;28;20044;-43
2023/04/29 03:14:21;;;;;;;21.63;16.38;;;;;;;8.44;nan;101552.75;5009877;28;20494;-42
2023/04/29 03:16:46;;;;;;;25.77;16.50;;;;;;;8.78;nan;101618.81;4995125;28;20038;-42
2023/04/29 03:19:12;;;;;;;27.00;18.08;;;;;;;8.37;nan;101550.22;4994534;28;20038;-42
2023/04/29 03:21:37;;;;;;;24.40;17.90;;;;;;;8.84;nan;101638.88;4994257;28;20042;-44
2023/04/29 03:24:02;;;;;;;23.90;18.20;;;;;;;8.69;nan;101607.56;4994777;28;20043;-40
2023/04/29 03:26:28;;;;;;;25.73;18.58;;;;;;;8.87;nan;101633.59;4993450;28;20069;-39
2023/04/29 03:28:53;;;;;;;26.05;18.05;;;;;;;8.77;nan;101622.31;4993270;28;20125;-42
2023/04/29 03:31:20;;;;;;;27.55;18.38;;;;;;;8.70;nan;101601.44;4994562;28;20444;-43
2023/04/29 03:33:45;;;;;;;22.05;16.55;;;;;;;8.85;nan;101641.47;4994002;28;20038;-43
2023/04/29 03:36:10;;;;;;;22.73;18.42;;;;;;;8.88;nan;101643.19;4994323;28;20089;-42
2023/04/29 03:38:36;;;;;;;22.63;17.90;;;;;;;8.79;nan;101627.53;4993617;28;20042;-41
2023/04/29 03:41:01;;;;;;;23.95;17.88;;;;;;;8.88;nan;101638.81;4994181;28;20391;-44
2023/04/29 03:43:26;;;;;;;21.13;17.50;;;;;;;8.49;nan;101579.78;4994161;28;20042;-43
2023/04/29 03:45:52;;;;;;;25.50;19.38;;;;;;;8.79;nan;101623.16;4992629;28;20054;-44
2023/04/29 03:48:18;;;;;;;20.05;17.27;;;;;;;8.89;nan;101640.56;4994063;28;20064;-42
2023/04/29 03:50:44;;;;;;;21.15;17.05;;;;;;;8.89;nan;101655.44;4994402;28;20117;-45
2023/04/29 03:53:10;;;;;;;24.98;17.67;;;;;;;8.62;nan;101601.50;5009240;28;20125;-43
2023/04/29 03:55:36;;;;;;;24.45;18.25;;;;;;;8.90;nan;101642.25;5008063;28;20053;-43
2023/04/29 03:58:01;;;;;;;26.75;19.13;;;;;;;8.91;nan;101645.78;4992866;28;20044;-43
2023/04/29 04:00:29;;;;;;;24.30;18.85;;;;;;;8.71;nan;101611.91;4994532;28;20061;-43
2023/04/29 04:02:55;;;;;;;25.45;19.10;;;;;;;8.66;nan;101612.84;5008966;28;20108;-41
2023/04/29 04:05:23;;;;;;;30.25;19.42;;;;;;;8.68;nan;101606.69;4992695;28;20474;-42
2023/04/29 04:07:50;;;;;;;24.98;19.63;;;;;;;8.44;nan;101565.00;4992928;28;20039;-40
2023/04/29 04:10:15;;;;;;;26.33;18.38;;;;;;;8.93;nan;101654.53;4992516;28;20034;-42
2023/04/29 04:12:40;;;;;;;26.92;18.27;;;;;;;8.82;nan;101641.50;4991653;28;20096;-43
2023/04/29 04:15:06;;;;;;;30.48;19.33;;;;;;;8.90;nan;101668.53;4993396;28;20034;-43
2023/04/29 04:17:31;;;;;;;26.13;18.45;;;;;;;8.92;nan;101658.88;4992219;28;20038;-42
2023/04/29 04:19:56;;;;;;;27.50;19.35;;;;;;;8.84;nan;101652.84;4993794;28;20089;-40
2023/04/29 04:22:22;;;;;;;28.20;19.50;;;;;;;8.85;nan;101659.84;4993466;28;20089;-39
2023/04/29 04:24:47;;;;;;;29.67;18.92;;;;;;;8.90;nan;101659.81;4993501;28;20414;-40
2023/04/29 04:27:13;;;;;;;32.00;19.33;;;;;;;8.57;nan;101611.22;4993581;28;20042;-40
2023/04/29 04:29:38;;;;;;;29.27;20.05;;;;;;;8.92;nan;101664.16;5007745;28;20081;-43
2023/04/29 04:32:04;;;;;;;30.90;20.08;;;;;;;8.56;nan;101605.97;4993429;28;20488;-42
2023/04/29 04:34:29;;;;;;;27.77;20.95;;;;;;;8.70;nan;101628.53;4993312;28;20447;-42
2023/04/29 04:36:55;;;;;;;37.13;21.45;;;;;;;8.96;nan;101670.22;4993851;28;20069;-43
2023/04/29 04:39:20;;;;;;;34.55;20.35;;;;;;;8.95;nan;101673.72;4992808;28;20405;-42
2023/04/29 04:41:45;;;;;;;35.42;20.73;;;;;;;8.94;nan;101696.50;4991529;28;20076;-42
2023/04/29 04:44:12;;;;;;;29.85;21.60;;;;;;;8.69;nan;101649.56;5008369;28;20046;-38
2023/04/29 04:46:37;;;;;;;27.65;20.35;;;;;;;8.98;nan;101705.22;4992865;28;20038;-41
2023/04/29 04:49:02;;;;;;;29.27;21.38;;;;;;;8.60;nan;101634.78;4991920;28;20046;-41
2023/04/29 04:51:28;;;;;;;32.50;21.40;;;;;;;8.74;nan;101661.72;4991102;28;20045;-40
2023/04/29 04:53:53;;;;;;;30.40;22.20;;;;;;;9.02;nan;101706.88;4993277;28;20034;-40
2023/04/29 04:56:18;;;;;;;32.58;21.38;;;;;;;8.66;nan;101654.84;4993505;28;20485;-43
2023/04/29 04:58:44;;;;;;;28.52;20.70;;;;;;;9.05;nan;101712.97;4993100;28;20034;-44
2023/04/29 05:01:09;;;;;;;32.88;21.70;;;;;;;8.69;nan;101658.31;4993091;28;20401;-40
2023/04/29 05:03:35;;;;;;;33.10;22.60;;;;;;;8.70;nan;101659.19;4992260;28;20096;-43
2023/04/29 05:06:00;;;;;;;33.67;22.27;;;;;;;8.70;nan;101653.94;4993030;28;20042;-42
2023/04/29 05:08:26;;;;;;;35.63;23.55;;;;;;;9.02;nan;101714.78;5008106;28;20096;-44
2023/04/29 05:10:51;;;;;;;33.53;23.25;;;;;;;9.08;nan;101734.88;4991106;28;20031;-43
2023/04/29 05:13:17;;;;;;;35.38;22.88;;;;;;;9.13;nan;101735.66;4991390;28;20060;-41
2023/04/29 05:15:43;;;;;;;29.85;23.67;;;;;;;9.09;nan;101733.94;4992884;28;20064;-42
2023/04/29 05:18:09;;;;;;;34.17;24.33;;;;;;;9.11;nan;101754.06;4992874;28;20037;-43
2023/04/29 05:20:34;;;;;;;37.80;24.55;;;;;;;8.75;nan;101681.84;4990913;28;20064;-44
2023/04/29 05:23:00;;;;;;;37.45;24.80;;;;;;;8.99;nan;101728.81;4991625;28;20042;-42
2023/04/29 05:25:25;;;;;;;35.63;25.80;;;;;;;9.13;nan;101744.44;4992740;28;20534;-42
2023/04/29 05:27:52;;;;;;;37.00;24.20;;;;;;;9.14;nan;101748.75;4991140;28;20030;-41
2023/04/29 05:30:17;;;;;;;37.42;25.88;;;;;;;9.16;nan;101749.63;4992765;28;20039;-41
2023/04/29 05:32:44;;;;;;;35.47;25.13;;;;;;;9.19;nan;101754.84;4993023;28;20037;-42
2023/04/29 05:35:10;;;;;;;33.85;23.95;;;;;;;8.87;nan;101697.44;4991437;28;20038;-40
2023/04/29 05:37:36;;;;;;;33.78;23.38;;;;;;;9.11;nan;101742.72;4991844;28;20053;-40
2023/04/29 05:40:01;;;;;;;34.05;22.95;;;;;;;9.15;nan;101749.66;4992465;28;20038;-40
2023/04/29 05:42:26;;;;;;;35.60;23.08;;;;;;;9.21;nan;101760.94;4992314;28;20113;-42
2023/04/29 05:44:52;;;;;;;29.52;22.23;;;;;;;9.28;nan;101764.38;4991554;28;20039;-42
2023/04/29 05:47:17;;;;;;;31.20;22.73;;;;;;;9.02;nan;101714.78;4992505;28;20105;-41
2023/04/29 05:49:42;;;;;;;31.40;22.48;;;;;;;9.29;nan;101764.34;4991025;28;20034;-42
2023/04/29 05:52:08;;;;;;;26.63;20.48;;;;;;;9.33;nan;101771.31;4991467;28;20150;-41
2023/04/29 05:54:33;;;;;;;28.58;20.58;;;;;;;9.35;nan;101771.28;4992509;28;20062;-41
2023/04/29 05:57:01;;;;;;;27.50;19.60;;;;;;;9.40;nan;101787.84;5007655;28;20523;-42
2023/04/29 05:59:28;;;;;;;25.85;18.88;;;;;;;9.32;nan;101784.44;4990996;28;20038;-44
2023/04/29 06:01:53;;;;;;;31.10;20.17;;;;;;;8.49;nan;101658.50;4992506;28;20126;-43
2023/04/29 06:04:19;;;;;;;27.00;18.42;;;;;;;8.92;nan;101710.53;4994368;28;20144;-42
2023/04/29 06:06:44;;;;;;;22.38;16.55;;;;;;;9.60;nan;101815.63;4995737;28;20165;-40
2023/04/29 06:09:10;;;;;;;21.20;16.92;;;;;;;9.50;nan;101777.22;4995146;28;20038;-43
2023/04/29 06:11:36;;;;;;;22.60;16.42;;;;;;;9.63;nan;101800.72;4995996;28;20421;-41
2023/04/29 06:14:02;;;;;;;20.95;16.00;;;;;;;9.82;nan;101813.59;4995833;28;20034;-43
2023/04/29 06:16:27;;;;;;;19.33;14.90;;;;;;;9.83;nan;101819.72;4995968;28;20042;-40
2023/04/29 06:18:52;;;;;;;20.55;16.15;;;;;;;9.90;nan;101824.88;4995882;28;20452;-42
2023/04/29 06:21:18;;;;;;;15.55;13.35;;;;;;;9.93;nan;101824.81;4995936;28;20045;-41
2023/04/29 06:23:44;;;;;;;17.88;13.10;;;;;;;10.02;nan;101831.72;4994207;28;20125;-42
2023/04/29 06:26:09;;;;;;;19.42;13.13;;;;;;;9.94;nan;101788.88;4995372;28;20124;-40
2023/04/29 06:28:34;;;;;;;16.42;12.90;;;;;;;10.33;nan;101842.69;4995589;28;20034;-46
2023/04/29 06:31:00;;;;;;;15.52;12.52;;;;;;;10.49;nan;101834.53;4995800;28;20034;-42
2023/04/29 06:33:25;;;;;;;15.45;13.48;;;;;;;10.57;nan;101847.56;4995320;28;20086;-41
2023/04/29 06:35:51;;;;;;;14.90;12.70;;;;;;;10.45;nan;101843.34;4995292;28;20042;-41
2023/04/29 06:38:16;;;;;;;15.98;12.93;;;;;;;10.71;nan;101861.38;4995431;28;20185;-43
2023/04/29 06:40:41;;;;;;;18.40;13.73;;;;;;;10.74;nan;101856.91;4994635;28;20042;-40
2023/04/29 06:43:06;;;;;;;17.10;13.45;;;;;;;10.87;nan;101861.97;4995267;28;20113;-42
2023/04/29 06:45:32;;;;;;;18.30;13.82;;;;;;;10.91;nan;101859.28;4995097;28;20038;-42
2023/04/29 06:47:57;;;;;;;15.60;13.43;;;;;;;10.95;nan;101860.06;4995261;28;20105;-40
2023/04/29 06:50:23;;;;;;;16.15;13.10;;;;;;;11.03;nan;101881.91;4993936;28;20066;-42
2023/04/29 06:52:48;;;;;;;18.23;13.15;;;;;;;11.18;nan;101885.09;4995203;28;20042;-43
2023/04/29 06:55:13;;;;;;;15.25;11.57;;;;;;;11.03;nan;101889.81;4994617;28;20105;-43
2023/04/29 06:57:39;;;;;;;17.10;11.30;;;;;;;11.09;nan;101885.28;4994163;28;20038;-41
2023/04/29 07:00:05;;;;;;;17.60;12.10;;;;;;;11.21;nan;101892.09;4995377;28;20121;-42
2023/04/29 07:02:30;;;;;;;16.48;11.70;;;;;;;11.36;nan;101896.19;4995077;28;20033;-43
2023/04/29 07:04:56;;;;;;;17.95;11.63;;;;;;;11.49;nan;101903.88;4994185;28;20034;-42
2023/04/29 07:07:21;;;;;;;14.82;10.32;;;;;;;11.57;nan;101915.13;4994796;28;20035;-44
2023/04/29 07:09:50;;;;;;;14.75;11.52;;;;;;;11.56;nan;101862.41;4994849;28;20030;-42
2023/04/29 07:12:15;;;;;;;14.90;9.18;;;;;;;12.14;nan;101923.63;4995032;28;20125;-42
2023/04/29 07:14:41;;;;;;;14.57;9.23;;;;;;;12.01;nan;101874.69;4992893;28;20050;-41
2023/04/29 07:17:07;;;;;;;11.43;8.73;;;;;;;12.53;nan;101913.97;4995016;28;20041;-40
2023/04/29 07:19:32;;;;;;;10.70;7.25;;;;;;;12.76;nan;101908.13;4994471;28;20082;-41
2023/04/29 07:21:58;;;;;;;13.15;7.97;;;;;;;13.39;nan;101937.41;4993323;28;20038;-42
2023/04/29 07:24:23;;;;;;;11.80;7.85;;;;;;;13.44;nan;101870.25;5009570;28;20062;-43
2023/04/29 07:26:48;;;;;;;13.02;7.43;;;;;;;14.04;nan;101894.03;4993565;28;20054;-41
2023/04/29 07:29:14;;;;;;;13.48;7.07;;;;;;;14.49;nan;101917.44;4994183;28;20031;-43
2023/04/29 07:31:39;;;;;;;8.95;6.57;;;;;;;14.01;nan;101948.84;4993440;28;20030;-41
2023/04/29 07:34:04;;;;;;;9.30;6.93;;;;;;;14.52;nan;101987.09;4994337;28;20038;-42
2023/04/29 07:36:30;;;;;;;8.18;6.75;;;;;;;14.50;nan;101933.28;4994420;28;20540;-45
2023/04/29 07:38:55;;;;;;;9.95;6.82;;;;;;;14.58;nan;101949.81;4994390;28;20466;-44
2023/04/29 07:41:21;;;;;;;10.93;6.60;;;;;;;14.90;nan;101995.63;4994102;28;20050;-46
2023/04/29 07:43:46;;;;;;;8.15;6.00;;;;;;;15.10;nan;101993.19;4993240;28;20046;-44
2023/04/29 07:46:11;;;;;;;8.93;6.47;;;;;;;15.16;nan;101977.94;4994239;28;20061;-43
2023/04/29 07:48:38;;;;;;;11.95;7.03;;;;;;;15.41;nan;101993.88;5008476;28;20101;-47
2023/04/29 07:51:04;;;;;;;12.30;7.35;;;;;;;15.61;nan;101991.47;4994205;28;20405;-40
2023/04/29 07:53:29;;;;;;;9.43;7.13;;;;;;;16.17;nan;102000.03;4993857;28;20478;-41
2023/04/29 07:55:55;;;;;;;8.18;6.60;;;;;;;15.81;nan;102003.16;4993091;28;20154;-44
2023/04/29 07:58:20;;;;;;;11.30;6.90;;;;;;;14.71;nan;101934.38;4994322;28;20061;-42
2023/04/29 08:00:46;;;;;;;11.65;7.25;;;;;;;13.54;nan;101837.31;4994117;28;20030;-42
2023/04/29 08:03:11;;;;;;;9.05;6.40;;;;;;;14.89;nan;102002.69;5008289;28;20272;-43
2023/04/29 08:05:37;;;;;;;11.98;6.78;;;;;;;15.10;nan;101996.72;4993730;28;20393;-42
2023/04/29 08:08:02;;;;;;;10.32;6.40;;;;;;;15.12;nan;101941.84;4993746;28;20077;-46
2023/04/29 08:10:28;;;;;;;12.10;7.22;;;;;;;15.32;nan;101996.88;4993559;28;20057;-44
2023/04/29 08:12:53;;;;;;;10.13;6.85;;;;;;;15.80;nan;101989.03;4993547;28;20053;-43
2023/04/29 08:15:19;;;;;;;14.93;7.30;;;;;;;16.45;nan;102012.28;5009003;28;20034;-45
2023/04/29 08:17:44;;;;;;;10.02;6.75;;;;;;;16.25;nan;102005.94;4991503;28;20390;-41
2023/04/29 08:20:10;;;;;;;11.60;6.55;;;;;;;16.07;nan;102017.25;4993521;28;20057;-42
2023/04/29 08:22:35;;;;;;;9.13;6.50;;;;;;;15.82;nan;101992.47;4991923;28;20049;-41
2023/04/29 08:25:03;;;;;;;9.38;6.65;;;;;;;15.73;nan;101998.16;4993455;28;20117;-42
2023/04/29 08:27:30;;;;;;;12.02;6.72;;;;;;;15.56;nan;102008.44;4992787;28;20542;-41
2023/04/29 08:29:55;;;;;;;11.45;7.43;;;;;;;14.54;nan;101950.81;5008566;28;20069;-40
2023/04/29 08:32:21;;;;;;;11.13;7.07;;;;;;;15.08;nan;102008.28;4993021;28;20049;-42
2023/04/29 08:34:47;;;;;;;12.88;6.95;;;;;;;15.66;nan;102015.19;4992676;28;20030;-41
2023/04/29 08:37:12;;;;;;;9.88;6.97;;;;;;;16.13;nan;101952.41;4992300;28;20042;-42
2023/04/29 08:39:37;;;;;;;9.98;6.60;;;;;;;16.69;nan;102024.69;4993167;28;20159;-43
2023/04/29 08:42:09;;;;;;;11.05;6.68;;;;;;;16.02;nan;101974.06;4991930;28;20050;-41
2023/04/29 08:44:35;;;;;;;16.25;7.00;;;;;;;16.34;nan;102028.66;4993321;28;20509;-44
2023/04/29 08:47:01;;;;;;;11.48;6.15;;;;;;;16.19;nan;101979.63;4991950;28;20038;-44
2023/04/29 08:49:32;;;;;;;8.07;6.07;;;;;;;17.36;nan;102022.81;4992839;28;20490;-41
2023/04/29 08:51:57;;;;;;;10.10;6.65;;;;;;;17.63;nan;101972.91;4992228;28;20109;-47
2023/04/29 08:54:23;;;;;;;8.82;6.47;;;;;;;17.59;nan;102014.78;4991525;28;20451;-42
2023/04/29 08:56:50;;;;;;;10.80;6.72;;;;;;;16.89;nan;101897.09;5008213;28;20118;-45
2023/04/29 08:59:17;;;;;;;8.95;5.75;;;;;;;17.91;nan;102037.34;4993293;28;20042;-44
2023/04/29 09:01:43;;;;;;;10.75;6.55;;;;;;;17.57;nan;101997.97;4993019;28;20035;-45
2023/04/29 09:04:09;;;;;;;10.23;6.43;;;;;;;17.08;nan;102046.16;4992425;28;20039;-41
2023/04/29 09:06:34;;;;;;;9.40;6.38;;;;;;;17.31;nan;101992.84;4992226;28;20409;-42
2023/04/29 09:09:00;;;;;;;8.18;6.32;;;;;;;17.98;nan;102034.31;4991440;28;20077;-41
2023/04/29 09:11:27;;;;;;;8.80;6.57;;;;;;;17.94;nan;102005.25;4991351;28;20034;-48
2023/04/29 09:14:00;;;;;;;11.15;7.00;;;;;;;18.83;nan;102032.19;5008026;28;20069;-40
2023/04/29 09:16:26;;;;;;;9.75;6.15;;;;;;;18.45;nan;102001.97;4993273;28;20431;-45
2023/04/29 09:18:53;;;;;;;8.85;6.05;;;;;;;17.30;nan;101992.03;4993388;28;20035;-44
2023/04/29 09:21:26;;;;;;;7.07;5.90;;;;;;;17.93;nan;102011.50;4993319;28;20066;-43
2023/04/29 09:23:59;;;;;;;12.25;6.72;;;;;;;17.94;nan;102042.53;4978787;28;20405;-42
2023/04/29 09:26:26;;;;;;;10.07;6.32;;;;;;;18.11;nan;102045.31;4972769;28;20034;-42
2023/04/29 09:29:10;;;;;;;11.80;6.55;;;;;;;17.21;nan;102016.34;4987346;28;20070;-47
2023/04/29 09:31:39;;;;;;;12.48;7.05;;;;;;;16.27;nan;102045.72;4972120;28;20475;-46
2023/04/29 09:34:06;;;;;;;9.05;6.55;;;;;;;16.49;nan;102057.28;4990095;28;20448;-42
2023/04/29 09:36:35;;;;;;;11.43;7.63;;;;;;;16.06;nan;102060.66;4989432;28;20070;-42
2023/04/29 09:39:01;;;;;;;7.95;7.00;;;;;;;16.43;nan;102060.19;4984531;28;20055;-45
2023/04/29 09:41:27;;;;;;;8.93;6.68;;;;;;;16.53;nan;102050.06;4992019;28;20537;-44
2023/04/29 09:44:06;;;;;;;9.27;6.63;;;;;;;16.17;nan;102071.75;4995725;28;20046;-41
2023/04/29 09:46:32;;;;;;;9.55;7.28;;;;;;;16.70;nan;102045.00;4995603;28;20403;-43
2023/04/29 09:48:58;;;;;;;8.38;6.63;;;;;;;17.34;nan;102061.94;5001344;28;20382;-41
2023/04/29 09:51:23;;;;;;;9.20;5.90;;;;;;;16.66;nan;102054.03;4989310;28;20038;-41
2023/04/29 09:53:49;;;;;;;8.43;6.47;;;;;;;16.67;nan;102063.72;4995531;28;20129;-43
2023/04/29 09:56:15;;;;;;;8.35;6.18;;;;;;;17.22;nan;102018.06;4988178;28;20039;-42
2023/04/29 09:58:41;;;;;;;9.70;6.25;;;;;;;17.85;nan;102062.44;4989027;28;20054;-41
2023/04/29 10:01:07;;;;;;;7.10;5.40;;;;;;;18.11;nan;102052.44;4986874;28;20027;-46
2023/04/29 10:03:36;;;;;;;7.70;5.65;;;;;;;18.45;nan;102050.84;4993682;28;20518;-45
2023/04/29 10:06:03;;;;;;;7.47;5.30;;;;;;;19.32;nan;101999.50;4994037;28;20500;-47
2023/04/29 10:08:30;;;;;;;6.50;5.30;;;;;;;19.66;nan;102038.75;4989517;28;20449;-45
2023/04/29 10:10:58;;;;;;;7.88;5.75;;;;;;;18.57;nan;102084.09;4993443;28;20034;-42
2023/04/29 10:13:25;;;;;;;8.30;5.68;;;;;;;18.19;nan;102035.16;4992910;28;20060;-45
2023/04/29 10:16:43;;;;;;;11.57;5.90;;;;;;;18.35;nan;102078.00;4995863;28;20474;-40
2023/04/29 10:19:11;;;;;;;8.80;5.97;;;;;;;18.66;nan;102082.81;4962820;28;20074;-43
2023/04/29 10:21:37;;;;;;;11.70;6.22;;;;;;;18.89;nan;102059.47;4994266;28;20026;-40
2023/04/29 10:24:02;;;;;;;11.63;6.28;;;;;;;18.67;nan;102079.22;4994549;28;20355;-44
2023/04/29 10:26:28;;;;;;;9.30;6.60;;;;;;;18.02;nan;102082.16;4994431;28;20089;-45
2023/04/29 10:28:55;;;;;;;7.28;5.25;;;;;;;16.79;nan;102032.22;4993727;28;20034;-42
2023/04/29 10:31:21;;;;;;;10.20;6.72;;;;;;;16.89;nan;102038.06;4995673;28;20051;-46
2023/04/29 10:33:47;;;;;;;8.32;6.40;;;;;;;16.64;nan;102027.50;4995694;28;20066;-43
2023/04/29 10:36:13;;;;;;;8.25;6.25;;;;;;;16.82;nan;102026.78;4995168;28;20461;-43
2023/04/29 10:38:43;;;;;;;9.40;6.95;;;;;;;17.71;nan;102037.34;4995592;28;20038;-42
2023/04/29 10:41:24;;;;;;;8.40;5.80;;;;;;;18.58;nan;102069.84;4995164;28;20438;-45
2023/04/29 10:43:51;;;;;;;9.80;5.80;;;;;;;19.62;nan;102056.75;4995101;28;20051;-41
2023/04/29 10:46:18;;;;;;;7.63;6.00;;;;;;;20.42;nan;102022.25;5009518;28;20118;-44
2023/04/29 10:48:44;;;;;;;7.35;5.20;;;;;;;20.30;nan;102022.03;4994007;28;20169;-46
2023/04/29 10:51:10;;;;;;;6.93;5.85;;;;;;;20.46;nan;102013.09;4994854;28;20106;-44
2023/04/29 10:53:35;;;;;;;7.68;5.22;;;;;;;19.52;nan;102058.16;4995197;28;20069;-43
2023/04/29 10:56:08;;;;;;;11.15;6.03;;;;;;;18.66;nan;102035.69;5010264;28;20466;-42
2023/04/29 10:58:38;;;;;;;9.27;5.80;;;;;;;19.15;nan;102063.53;4994976;28;20477;-43
2023/04/29 11:01:04;;;;;;;8.50;5.50;;;;;;;20.07;nan;102026.78;4995032;28;20031;-46
2023/04/29 11:03:49;;;;;;;10.32;5.40;;;;;;;21.64;nan;102078.59;4992646;28;20636;-44
2023/04/29 11:06:15;;;;;;;8.65;5.65;;;;;;;21.40;nan;102022.91;4995086;28;20042;-41
2023/04/29 11:08:42;;;;;;;8.50;5.38;;;;;;;21.73;nan;102075.38;4993826;28;20601;-43
2023/04/29 11:11:07;;;;;;;7.15;5.40;;;;;;;20.51;nan;102074.38;4993851;28;20041;-42
2023/04/29 11:13:38;;;;;;;6.20;4.95;;;;;;;19.01;nan;102088.25;4994959;28;20394;-45
2023/04/29 11:16:05;;;;;;;10.70;6.35;;;;;;;18.11;nan;102082.63;4994160;28;20034;-42
2023/04/29 11:18:31;;;;;;;6.10;5.50;;;;;;;17.88;nan;102066.78;4993577;28;20037;-43
2023/04/29 11:21:05;;;;;;;7.97;6.00;;;;;;;17.29;nan;102093.19;5009884;28;20030;-45
2023/04/29 11:23:37;;;;;;;5.80;5.30;;;;;;;17.41;nan;102027.03;4994267;28;20034;-42
2023/04/29 11:26:03;;;;;;;7.65;5.88;;;;;;;18.98;nan;102100.84;4994907;28;20038;-42
2023/04/29 11:28:32;;;;;;;13.40;6.32;;;;;;;19.33;nan;102037.75;4993209;28;20038;-44
2023/04/29 11:30:58;;;;;;;11.18;6.13;;;;;;;19.76;nan;102087.25;4994463;28;20034;-41
2023/04/29 11:33:26;;;;;;;9.35;5.40;;;;;;;19.10;nan;102078.91;5008709;28;20088;-47